Main page
METAR-TAF:

METAR-TAF

Airports :

Mécheria, Algeria

Mécheria Airport

latitude: 34-56N, longitude: 000-26W, elevation: 1149 m

Current weather observation

The report was made 27 minutes ago, at 07:00 UTC
Wind 10 kt from the Southwest
Temperature 7°C
Humidity 49%
Pressure 1022 hPa
Visibility 10 km or more
no clouds below 1500 m and no cumulonimbus

METAR: DAAY 220700Z 23010KT CAVOK 07/M03 Q1022

Time: 08:27 (07:27 UTC)

Forecast

The report was made 2 hours and 27 minutes ago, at 05:00 UTC
Forecast valid from 22 at 06 UTC to 22 at 15 UTC
Wind 2 kt from variable directions
Visibility 10 km or more
no clouds below 1500 m and no cumulonimbus
Becoming
from 22 at 09 UTC to 22 at 12 UTC
Wind 12 kt from the West/Southwest

TAF: DAAY 220500Z 2206/2215 VRB02KT CAVOK BECMG 2209/2212 25012KT

Weather observations and forecasts of more than 4000 airports (METAR and TAF reports).

The available stations are represented by yellow and red dots on the map.

Hover mouse over dot to see the name of the station.

Then click to see weather observations and forecasts.

To change the map : click on the green buttons with a black cross to zoom in, on the green button with a dash to zoom out, or on the green arrows for adjacent maps.


METAR-TAF: